createdAt,value
2019-06-20T00:01:12.539Z,2.00
2019-06-20T00:03:42.201Z,2.20
2019-06-20T00:06:11.882Z,2.00
2019-06-20T00:08:41.570Z,2.60
2019-06-20T00:11:11.199Z,2.37
2019-06-20T00:13:40.859Z,2.80
2019-06-20T00:16:10.455Z,3.37
2019-06-20T00:18:40.047Z,3.55
2019-06-20T00:21:09.734Z,2.80
2019-06-20T00:23:39.352Z,2.80
2019-06-20T00:26:08.957Z,2.80
2019-06-20T00:28:38.549Z,2.58
2019-06-20T00:31:08.281Z,2.50
2019-06-20T00:33:37.942Z,2.47
2019-06-20T00:36:07.525Z,2.40
2019-06-20T00:38:37.229Z,2.67
2019-06-20T00:41:06.882Z,2.62
2019-06-20T00:43:36.456Z,2.52
2019-06-20T00:46:08.454Z,2.40
2019-06-20T00:48:38.141Z,2.05
2019-06-20T00:51:07.808Z,2.20
2019-06-20T00:53:37.459Z,1.80
2019-06-20T00:56:08.136Z,1.90
2019-06-20T00:58:37.759Z,1.70
2019-06-20T01:01:07.418Z,1.40
2019-06-20T01:03:37.088Z,1.60
2019-06-20T01:06:08.062Z,1.40
2019-06-20T01:08:37.758Z,1.22
2019-06-20T01:11:07.404Z,1.50
2019-06-20T01:13:37.043Z,1.32
2019-06-20T01:16:06.765Z,1.20
2019-06-20T01:18:38.040Z,1.15
2019-06-20T01:21:08.809Z,1.07
2019-06-20T01:23:38.485Z,1.10
2019-06-20T01:26:08.252Z,1.10
2019-06-20T01:28:38.534Z,0.90
2019-06-20T01:31:10.102Z,0.98
2019-06-20T01:33:39.529Z,0.80
2019-06-20T01:36:09.592Z,1.00
2019-06-20T01:38:39.210Z,0.80
2019-06-20T01:41:08.920Z,0.78
2019-06-20T01:43:50.029Z,0.70
2019-06-20T01:46:11.715Z,0.80
2019-06-20T01:48:41.269Z,0.90
2019-06-20T01:51:10.951Z,1.10
2019-06-20T01:53:40.662Z,0.95
2019-06-20T01:56:10.272Z,1.10
2019-06-20T01:58:39.951Z,1.00
2019-06-20T02:01:09.729Z,1.10
2019-06-20T02:03:39.420Z,0.90
2019-06-20T02:06:09.189Z,1.00
2019-06-20T02:08:38.892Z,1.00
2019-06-20T02:11:08.551Z,1.20
2019-06-20T02:13:38.212Z,1.10
2019-06-20T02:16:07.895Z,0.98
2019-06-20T02:18:37.603Z,1.00
2019-06-20T02:21:07.767Z,1.00
2019-06-20T02:23:37.492Z,1.00
2019-06-20T02:26:07.171Z,1.00
2019-06-20T02:28:36.840Z,1.07
2019-06-20T02:31:06.535Z,0.95
2019-06-20T02:33:36.195Z,1.02
2019-06-20T02:36:05.987Z,0.80
2019-06-20T02:38:35.676Z,1.00
2019-06-20T02:41:05.480Z,0.90
2019-06-20T02:43:35.063Z,0.90
2019-06-20T02:46:05.003Z,1.00
2019-06-20T02:48:34.565Z,0.90
2019-06-20T02:51:05.204Z,0.98
2019-06-20T02:53:34.771Z,1.30
2019-06-20T02:56:04.385Z,1.00
2019-06-20T02:58:34.057Z,1.00
2019-06-20T03:01:03.727Z,1.10
2019-06-20T03:03:33.394Z,1.02
2019-06-20T03:06:02.996Z,0.98
2019-06-20T03:08:32.650Z,1.05
2019-06-20T03:11:02.283Z,1.32
2019-06-20T03:13:31.972Z,1.17
2019-06-20T03:16:01.658Z,1.40
2019-06-20T03:18:31.333Z,1.65
2019-06-20T03:21:01.001Z,1.77
2019-06-20T03:23:30.513Z,1.90
2019-06-20T03:26:00.139Z,1.87
2019-06-20T03:28:29.848Z,1.75
2019-06-20T03:30:59.375Z,1.92
2019-06-20T03:33:28.954Z,1.90
2019-06-20T03:35:58.626Z,2.08
2019-06-20T03:38:28.187Z,2.05
2019-06-20T03:40:57.786Z,2.33
2019-06-20T03:43:27.412Z,2.42
2019-06-20T03:45:59.403Z,1.85
2019-06-20T03:48:29.027Z,1.87
2019-06-20T03:50:58.690Z,2.22
2019-06-20T03:53:28.302Z,2.00
2019-06-20T03:55:58.966Z,1.92
2019-06-20T03:58:28.601Z,1.80
2019-06-20T04:00:58.206Z,1.80
2019-06-20T04:03:27.838Z,2.00
2019-06-20T04:05:57.430Z,1.90
2019-06-20T04:08:27.085Z,2.00
2019-06-20T04:10:58.528Z,2.10
2019-06-20T04:13:28.202Z,1.72
2019-06-20T04:15:57.861Z,1.70
2019-06-20T04:18:27.509Z,1.67
2019-06-20T04:20:57.152Z,2.08
2019-06-20T04:23:26.971Z,1.55
2019-06-20T04:25:56.722Z,1.80
2019-06-20T04:28:26.404Z,1.70
2019-06-20T04:30:55.983Z,2.00
2019-06-20T04:33:25.725Z,1.90
2019-06-20T04:35:55.516Z,1.70
2019-06-20T04:38:25.294Z,1.70
2019-06-20T04:40:54.982Z,1.87
2019-06-20T04:43:24.633Z,1.87
2019-06-20T04:45:55.910Z,2.12
2019-06-20T04:48:25.538Z,1.90
2019-06-20T04:50:55.110Z,1.57
2019-06-20T04:53:24.840Z,1.87
2019-06-20T04:55:54.431Z,1.50
2019-06-20T04:58:24.062Z,1.60
2019-06-20T05:00:53.669Z,1.70
2019-06-20T05:03:23.347Z,1.50
2019-06-20T05:05:52.909Z,1.87
2019-06-20T05:08:22.567Z,1.55
2019-06-20T05:10:52.198Z,1.70
2019-06-20T05:13:21.861Z,1.25
2019-06-20T05:15:53.208Z,1.50
2019-06-20T05:18:22.735Z,1.42
2019-06-20T05:20:52.376Z,1.80
2019-06-20T05:23:22.024Z,1.35
2019-06-20T05:25:51.573Z,1.90
2019-06-20T05:28:21.209Z,1.80
2019-06-20T05:30:50.698Z,1.57
2019-06-20T05:33:20.273Z,1.62
2019-06-20T05:35:49.949Z,1.50
2019-06-20T05:38:19.602Z,1.80
2019-06-20T05:40:49.275Z,1.60
2019-06-20T05:43:18.958Z,1.37
2019-06-20T05:45:49.043Z,1.50
2019-06-20T05:48:19.071Z,1.50
2019-06-20T05:50:48.693Z,1.70
2019-06-20T05:53:19.526Z,1.60
2019-06-20T05:55:49.104Z,1.60
2019-06-20T05:58:19.206Z,1.77
2019-06-20T06:00:48.852Z,2.10
2019-06-20T06:03:18.980Z,1.70
2019-06-20T06:05:48.987Z,1.75
2019-06-20T06:08:18.613Z,2.10
2019-06-20T06:10:48.220Z,1.98
2019-06-20T06:13:18.890Z,1.80
2019-06-20T06:15:48.469Z,2.00
2019-06-20T06:18:18.099Z,2.58
2019-06-20T06:20:47.731Z,1.98
2019-06-20T06:23:17.350Z,1.90
2019-06-20T06:25:46.937Z,2.20
2019-06-20T06:28:16.585Z,1.85
2019-06-20T06:30:46.219Z,1.67
2019-06-20T06:33:15.854Z,1.72
2019-06-20T06:35:45.485Z,2.00
2019-06-20T06:38:22.168Z,2.25
2019-06-20T06:40:46.457Z,2.10
2019-06-20T06:43:16.091Z,1.87
2019-06-20T06:45:45.688Z,1.75
2019-06-20T06:48:15.369Z,2.02
2019-06-20T06:50:45.029Z,2.20
2019-06-20T06:53:14.702Z,2.50
2019-06-20T06:55:44.369Z,2.33
2019-06-20T06:58:14.030Z,2.17
2019-06-20T07:00:43.598Z,2.17
2019-06-20T07:03:13.247Z,2.58
2019-06-20T07:05:42.827Z,2.37
2019-06-20T07:08:12.510Z,2.20
2019-06-20T07:10:42.161Z,2.00
2019-06-20T07:13:11.724Z,2.10
2019-06-20T07:15:41.384Z,2.20
2019-06-20T07:18:11.042Z,2.30
2019-06-20T07:20:55.362Z,2.27
2019-06-20T07:23:25.013Z,2.27
2019-06-20T07:25:54.581Z,2.10
2019-06-20T07:28:24.202Z,2.10
2019-06-20T07:30:53.845Z,2.00
2019-06-20T07:33:23.500Z,2.35
2019-06-20T07:35:53.087Z,2.02
2019-06-20T07:38:22.736Z,2.15
2019-06-20T07:40:52.352Z,2.12
2019-06-20T07:43:21.958Z,2.12
2019-06-20T07:46:02.115Z,2.02
2019-06-20T07:48:22.830Z,2.30
2019-06-20T07:50:52.390Z,2.42
2019-06-20T07:53:22.033Z,2.10
2019-06-20T07:55:52.616Z,2.40
2019-06-20T07:58:22.312Z,1.98
2019-06-20T08:00:52.026Z,2.42
2019-06-20T08:03:21.608Z,2.22
2019-06-20T08:05:51.155Z,2.40
2019-06-20T08:08:20.832Z,2.20
2019-06-20T08:10:50.618Z,2.30
2019-06-20T08:13:20.268Z,2.00
2019-06-20T08:15:50.080Z,2.50
2019-06-20T08:18:19.726Z,2.20
2019-06-20T08:20:49.368Z,2.60
2019-06-20T08:23:19.015Z,2.60
2019-06-20T08:25:48.571Z,2.40
2019-06-20T08:28:18.173Z,2.30
2019-06-20T08:30:47.846Z,2.70
2019-06-20T08:33:17.448Z,2.30
2019-06-20T08:35:46.969Z,2.30
2019-06-20T08:38:17.448Z,2.50
2019-06-20T08:40:47.105Z,2.10
2019-06-20T08:43:16.748Z,2.25
2019-06-20T08:45:46.684Z,2.58
2019-06-20T08:48:16.278Z,2.22
2019-06-20T08:50:45.866Z,2.55
2019-06-20T08:53:15.467Z,2.30
2019-06-20T08:55:45.011Z,2.22
2019-06-20T08:58:14.573Z,2.10
2019-06-20T09:00:44.316Z,2.58
2019-06-20T09:03:13.967Z,2.10
2019-06-20T09:05:43.566Z,2.47
2019-06-20T09:08:13.241Z,2.22
2019-06-20T09:10:42.813Z,2.40
2019-06-20T09:13:13.181Z,2.35
2019-06-20T09:15:43.658Z,2.55
2019-06-20T09:18:13.273Z,2.60
2019-06-20T09:20:42.940Z,2.50
2019-06-20T09:23:12.543Z,2.42
2019-06-20T09:25:43.402Z,2.40
2019-06-20T09:28:13.105Z,2.40
2019-06-20T09:30:42.739Z,2.40
2019-06-20T09:33:12.375Z,2.55
2019-06-20T09:35:42.018Z,2.65
2019-06-20T09:38:11.667Z,2.40
2019-06-20T09:40:41.228Z,2.47
2019-06-20T09:43:10.797Z,2.37
2019-06-20T09:45:40.545Z,2.37
2019-06-20T09:48:10.199Z,2.35
2019-06-20T09:50:39.781Z,2.30
2019-06-20T09:53:09.364Z,2.40
2019-06-20T09:55:38.991Z,2.60
2019-06-20T09:58:08.639Z,2.17
2019-06-20T10:00:39.242Z,2.40
2019-06-20T10:03:08.876Z,2.52
2019-06-20T10:05:38.530Z,2.42
2019-06-20T10:08:08.147Z,2.58
2019-06-20T10:10:37.808Z,2.67
2019-06-20T10:13:07.437Z,2.47
2019-06-20T10:15:37.809Z,2.10
2019-06-20T10:18:08.480Z,2.10
2019-06-20T10:20:39.111Z,2.37
2019-06-20T10:23:09.211Z,2.30
2019-06-20T10:25:39.241Z,2.40
2019-06-20T10:28:08.998Z,2.12
2019-06-20T10:30:38.625Z,2.30
2019-06-20T10:33:08.219Z,2.40
2019-06-20T10:35:37.761Z,2.50
2019-06-20T10:38:07.509Z,2.35
2019-06-20T10:40:37.176Z,2.27
2019-06-20T10:43:06.854Z,2.50
2019-06-20T10:45:37.365Z,2.22
2019-06-20T10:48:07.354Z,2.52
2019-06-20T10:50:37.108Z,2.35
2019-06-20T10:53:06.842Z,2.15
2019-06-20T10:55:36.572Z,2.08
2019-06-20T10:58:06.442Z,2.30
2019-06-20T11:00:36.149Z,2.40
2019-06-20T11:03:06.404Z,2.20
2019-06-20T11:05:35.982Z,1.95
2019-06-20T11:08:05.931Z,2.00
2019-06-20T11:10:35.804Z,1.87
2019-06-20T11:13:05.539Z,1.92
2019-06-20T11:15:35.343Z,2.47
2019-06-20T11:18:05.004Z,2.10
2019-06-20T11:20:34.548Z,2.10
2019-06-20T11:23:04.543Z,2.40
2019-06-20T11:25:34.183Z,2.10
2019-06-20T11:28:03.865Z,2.17
2019-06-20T11:30:47.994Z,2.67
2019-06-20T11:33:05.355Z,1.87
2019-06-20T11:35:36.130Z,2.80
2019-06-20T11:38:06.256Z,3.05
2019-06-20T11:40:36.927Z,4.40
2019-06-20T11:43:07.184Z,4.45
2019-06-20T11:45:37.394Z,4.90
2019-06-20T11:48:08.128Z,5.37
2019-06-20T11:50:37.983Z,4.97
2019-06-20T11:53:07.933Z,5.80
2019-06-20T11:55:37.582Z,6.05
2019-06-20T11:58:07.208Z,6.20
2019-06-20T12:00:36.834Z,6.20
2019-06-20T12:03:06.612Z,6.40
2019-06-20T12:05:36.271Z,7.08
2019-06-20T12:08:05.921Z,6.35
2019-06-20T12:10:35.465Z,7.33
2019-06-20T12:13:05.080Z,6.87
2019-06-20T12:15:34.685Z,6.67
2019-06-20T12:18:04.459Z,6.58
2019-06-20T12:20:34.037Z,5.92
2019-06-20T12:23:03.675Z,6.50
2019-06-20T12:25:33.306Z,6.28
2019-06-20T12:28:02.839Z,6.08
2019-06-20T12:30:32.613Z,5.70
2019-06-20T12:33:02.355Z,5.95
2019-06-20T12:35:32.006Z,6.03
2019-06-20T12:38:01.686Z,5.60
2019-06-20T12:40:31.400Z,5.47
2019-06-20T12:43:01.036Z,5.20
2019-06-20T12:45:30.693Z,5.25
2019-06-20T12:48:00.241Z,5.17
2019-06-20T12:50:29.932Z,5.08
2019-06-20T12:52:59.634Z,5.10
2019-06-20T12:55:29.649Z,4.50
2019-06-20T12:57:59.495Z,5.87
2019-06-20T13:00:29.792Z,5.70
2019-06-20T13:02:59.485Z,5.20
2019-06-20T13:05:29.132Z,5.62
2019-06-20T13:07:58.799Z,5.08
2019-06-20T13:10:51.595Z,5.57
2019-06-20T13:15:50.057Z,5.72
2019-06-20T13:18:19.715Z,5.62
2019-06-20T13:20:49.360Z,5.70
2019-06-20T13:23:19.032Z,5.75
2019-06-20T13:25:48.939Z,5.78
2019-06-20T13:28:19.783Z,5.15
2019-06-20T13:30:51.997Z,5.22
2019-06-20T13:33:20.752Z,4.78
2019-06-20T13:35:50.882Z,4.05
2019-06-20T13:38:20.598Z,3.70
2019-06-20T13:40:50.292Z,3.33
2019-06-20T13:43:20.049Z,3.17
2019-06-20T13:45:49.979Z,3.00
2019-06-20T13:48:20.000Z,2.40
2019-06-20T13:50:49.800Z,2.27
2019-06-20T13:53:19.863Z,2.12
2019-06-20T13:55:50.323Z,2.35
2019-06-20T13:58:20.393Z,2.20
2019-06-20T14:00:50.997Z,2.22
2019-06-20T14:03:21.753Z,1.87
2019-06-20T14:05:51.747Z,1.62
2019-06-20T14:08:22.674Z,1.70
2019-06-20T14:10:52.457Z,1.82
2019-06-20T14:13:22.191Z,1.92
2019-06-20T14:15:51.924Z,1.80
2019-06-20T14:18:24.681Z,1.60
2019-06-20T14:20:55.277Z,1.70
2019-06-20T14:23:25.025Z,1.80
2019-06-20T14:25:54.708Z,2.02
2019-06-20T14:28:24.364Z,1.70
2019-06-20T14:30:53.961Z,1.85
2019-06-20T14:33:23.611Z,1.85
2019-06-20T14:35:54.674Z,2.10
2019-06-20T14:38:24.437Z,2.10
2019-06-20T14:40:54.577Z,2.52
2019-06-20T14:43:24.149Z,2.52
2019-06-20T14:45:53.798Z,2.80
2019-06-20T14:48:35.032Z,3.27
2019-06-20T14:54:07.315Z,1.20
2019-06-20T14:56:40.690Z,1.20
2019-06-20T14:59:38.012Z,1.30
2019-06-20T15:02:07.713Z,1.20
2019-06-20T15:04:37.372Z,1.17
2019-06-20T15:07:08.576Z,1.45
2019-06-20T15:09:40.328Z,1.52
2019-06-20T15:12:09.922Z,1.60
2019-06-20T15:14:39.610Z,1.55
2019-06-20T15:17:09.115Z,1.55
2019-06-20T15:19:38.788Z,1.80
2019-06-20T15:22:11.687Z,1.60
2019-06-20T15:24:53.227Z,1.90
2019-06-20T15:27:21.276Z,2.10
2019-06-20T15:29:52.250Z,1.83
2019-06-20T15:32:26.786Z,2.25
2019-06-20T15:34:58.078Z,2.22
2019-06-20T15:37:27.738Z,2.17
2019-06-20T15:39:57.520Z,2.40
2019-06-20T15:42:27.198Z,2.35
2019-06-20T15:44:58.123Z,2.45
2019-06-20T15:47:28.002Z,1.80
2019-06-20T15:49:57.747Z,2.35
2019-06-20T15:52:29.087Z,2.60
2019-06-20T15:54:58.887Z,2.60
2019-06-20T15:57:34.371Z,2.80
2019-06-20T16:00:07.162Z,2.75
2019-06-20T16:02:36.790Z,2.62
2019-06-20T16:05:08.238Z,2.77
2019-06-20T16:07:38.088Z,2.70
2019-06-20T16:10:09.799Z,2.50
2019-06-20T16:15:35.996Z,2.60
2019-06-20T16:18:07.247Z,2.33
2019-06-20T16:20:50.259Z,2.30
2019-06-20T16:23:19.893Z,2.45
2019-06-20T16:25:50.741Z,2.65
2019-06-20T16:28:20.463Z,2.72
2019-06-20T16:30:50.139Z,2.70
2019-06-20T16:33:25.261Z,2.80
2019-06-20T16:35:52.142Z,3.17
2019-06-20T16:38:21.758Z,2.77
2019-06-20T16:40:51.510Z,2.60
2019-06-20T16:43:21.169Z,2.45
2019-06-20T16:45:50.861Z,2.50
2019-06-20T16:48:20.565Z,2.33
2019-06-20T16:50:50.136Z,2.83
2019-06-20T16:53:19.816Z,2.62
2019-06-20T16:55:49.563Z,2.58
2019-06-20T16:58:19.094Z,2.67
2019-06-20T17:00:48.770Z,2.55
2019-06-20T17:03:18.452Z,2.55
2019-06-20T17:05:48.171Z,2.55
2019-06-20T17:08:17.830Z,2.50
2019-06-20T17:10:47.475Z,2.50
2019-06-20T17:13:17.222Z,2.77
2019-06-20T17:15:46.991Z,2.83
2019-06-20T17:18:16.582Z,2.75
2019-06-20T17:20:46.129Z,2.60
2019-06-20T17:23:15.755Z,2.47
2019-06-20T17:25:45.442Z,2.67
2019-06-20T17:28:16.060Z,2.60
2019-06-20T17:30:45.843Z,2.70
2019-06-20T17:33:15.639Z,3.08
2019-06-20T17:35:45.319Z,2.92
2019-06-20T17:38:14.952Z,3.10
2019-06-20T17:40:44.630Z,3.20
2019-06-20T17:43:14.301Z,3.20
2019-06-20T17:45:43.957Z,3.33
2019-06-20T17:48:13.678Z,2.85
2019-06-20T17:50:43.327Z,3.00
2019-06-20T17:53:12.858Z,3.12
2019-06-20T17:55:42.739Z,3.05
2019-06-20T17:58:12.438Z,2.98
2019-06-20T18:00:42.155Z,3.15
2019-06-20T18:03:11.849Z,3.27
2019-06-20T18:05:41.855Z,2.65
2019-06-20T18:08:15.441Z,3.30
2019-06-20T18:10:42.815Z,2.83
2019-06-20T18:13:12.446Z,2.92
2019-06-20T18:15:42.095Z,3.17
2019-06-20T18:18:11.634Z,2.80
2019-06-20T18:20:41.306Z,3.47
2019-06-20T18:23:10.873Z,2.20
2019-06-20T18:25:40.549Z,2.92
2019-06-20T18:28:10.195Z,3.12
2019-06-20T18:30:43.029Z,2.80
2019-06-20T18:33:13.434Z,2.83
2019-06-20T18:35:43.033Z,3.10
2019-06-20T18:38:13.792Z,3.20
2019-06-20T18:40:43.503Z,3.22
2019-06-20T18:43:13.192Z,3.30
2019-06-20T18:45:43.167Z,3.10
2019-06-20T18:48:12.874Z,3.55
2019-06-20T18:50:42.518Z,3.60
2019-06-20T18:53:12.149Z,2.87
2019-06-20T18:56:25.138Z,2.72
2019-06-20T18:58:54.748Z,3.12
2019-06-20T19:01:24.374Z,2.70
2019-06-20T19:03:53.974Z,3.20
2019-06-20T19:06:35.442Z,2.80
2019-06-20T19:08:55.788Z,2.90
2019-06-20T19:11:25.423Z,2.60
2019-06-20T19:13:55.002Z,2.55
2019-06-20T19:16:24.625Z,2.60
2019-06-20T19:18:54.277Z,2.67
2019-06-20T19:21:23.884Z,3.30
2019-06-20T19:23:55.429Z,2.90
2019-06-20T19:26:24.812Z,2.90
2019-06-20T19:28:54.467Z,2.60
2019-06-20T19:31:24.123Z,2.60
2019-06-20T19:33:53.772Z,2.40
2019-06-20T19:36:23.451Z,3.10
2019-06-20T19:38:53.135Z,3.05
2019-06-20T19:41:22.823Z,3.10
2019-06-20T19:43:53.990Z,3.05
2019-06-20T19:46:23.649Z,3.15
2019-06-20T19:48:53.288Z,2.87
2019-06-20T19:51:22.941Z,2.58
2019-06-20T19:53:52.503Z,3.02
2019-06-20T19:56:22.191Z,3.27
2019-06-20T19:58:53.105Z,3.37
2019-06-20T20:01:22.832Z,3.70
2019-06-20T20:03:52.525Z,3.52
2019-06-20T20:06:22.098Z,3.60
2019-06-20T20:08:51.723Z,3.72
2019-06-20T20:11:21.414Z,3.52
2019-06-20T20:13:51.031Z,3.52
2019-06-20T20:16:20.673Z,3.75
2019-06-20T20:18:51.421Z,3.60
2019-06-20T20:21:21.044Z,3.47
2019-06-20T20:23:50.696Z,3.58
2019-06-20T20:26:20.314Z,3.92
2019-06-20T20:28:50.035Z,3.30
2019-06-20T20:31:19.739Z,3.70
2019-06-20T20:33:49.377Z,2.87
2019-06-20T20:36:24.911Z,3.00
2019-06-20T20:38:50.079Z,3.20
2019-06-20T20:41:19.762Z,3.27
2019-06-20T20:43:49.553Z,2.85
2019-06-20T20:46:19.277Z,3.45
2019-06-20T20:48:48.883Z,2.80
2019-06-20T20:51:18.564Z,3.27
2019-06-20T20:53:48.245Z,3.17
2019-06-20T20:56:17.969Z,2.47
2019-06-20T20:58:47.613Z,3.05
2019-06-20T21:01:18.866Z,2.77
2019-06-20T21:03:48.534Z,2.75
2019-06-20T21:06:18.179Z,2.85
2019-06-20T21:08:47.822Z,2.75
2019-06-20T21:11:17.542Z,2.98
2019-06-20T21:13:47.243Z,2.42
2019-06-20T21:16:16.959Z,2.75
2019-06-20T21:18:46.621Z,2.35
2019-06-20T21:21:16.275Z,2.00
2019-06-20T21:23:46.197Z,2.92
2019-06-20T21:26:15.926Z,2.70
2019-06-20T21:28:46.623Z,2.33
2019-06-20T21:31:16.322Z,2.85
2019-06-20T21:33:45.969Z,2.20
2019-06-20T21:36:15.627Z,2.50
2019-06-20T21:38:45.275Z,2.90
2019-06-20T21:41:16.055Z,2.65
2019-06-20T21:43:45.746Z,2.40
2019-06-20T21:46:15.433Z,2.90
2019-06-20T21:48:45.076Z,2.58
2019-06-20T21:51:14.740Z,2.55
2019-06-20T21:53:44.407Z,2.20
2019-06-20T21:56:14.066Z,2.50
2019-06-20T21:58:43.747Z,2.20
2019-06-20T22:01:13.837Z,2.60
2019-06-20T22:03:43.636Z,2.50
2019-06-20T22:06:23.258Z,2.40
2019-06-20T22:08:44.609Z,2.12
2019-06-20T22:11:14.311Z,2.75
2019-06-20T22:13:45.585Z,2.30
2019-06-20T22:16:15.189Z,2.22
2019-06-20T22:18:44.894Z,2.40
2019-06-20T22:21:14.568Z,2.47
2019-06-20T22:23:44.190Z,2.30
2019-06-20T22:26:13.913Z,2.40
2019-06-20T22:28:43.517Z,3.20
2019-06-20T22:31:13.241Z,3.12
2019-06-20T22:33:45.900Z,3.12
2019-06-20T22:36:15.586Z,2.60
2019-06-20T22:38:45.278Z,2.90
2019-06-20T22:41:14.916Z,2.98
2019-06-20T22:43:44.638Z,2.85
2019-06-20T22:46:14.171Z,3.40
2019-06-20T22:48:43.874Z,3.98
2019-06-20T22:51:13.908Z,3.60
2019-06-20T22:53:43.750Z,4.00
2019-06-20T22:56:14.429Z,3.67
2019-06-20T22:58:44.128Z,3.87
2019-06-20T23:01:13.800Z,2.90
2019-06-20T23:03:43.473Z,2.87
2019-06-20T23:06:13.065Z,3.30
2019-06-20T23:08:42.720Z,3.87
2019-06-20T23:11:12.379Z,4.70
2019-06-20T23:13:43.063Z,4.42
2019-06-20T23:16:12.741Z,3.83
2019-06-20T23:18:42.321Z,4.10
2019-06-20T23:21:12.008Z,4.28
2019-06-20T23:23:41.674Z,4.58
2019-06-20T23:26:12.207Z,3.65
2019-06-20T23:28:41.902Z,2.80
2019-06-20T23:31:11.578Z,2.65
2019-06-20T23:33:41.237Z,2.55
2019-06-20T23:36:10.915Z,3.02
2019-06-20T23:38:40.578Z,4.00
2019-06-20T23:41:10.187Z,3.35
2019-06-20T23:43:39.891Z,4.00
2019-06-20T23:46:09.556Z,3.10
2019-06-20T23:48:40.229Z,2.90
2019-06-20T23:51:24.741Z,3.20
2019-06-20T23:53:41.181Z,5.62
2019-06-20T23:56:10.918Z,4.60
2019-06-20T23:58:40.581Z,3.30
